Crowborough, United Kingdom
Current Conditions -  °F | °C
As of 8:20 PM on Wednesday 26 Nov 2014 (Local Time) from EGKK Reporting Station
Light Rain Light Rain  
Wind Chill: 50°   Ceiling: 200
Heat Index: 50°   Visibility: 0.87mi
Dew Point: 50°   Wind: 5mph
Humidity: 100%   Direction: 50°NE
Pressure: 29.77"   Gusts: NA
Location:  51.06°N, 0.16°E
Report Text: EGKK 262020Z 05004KT 1400 R08R/P1500 -DZRA BKN002 10/10 Q1008 REDZ
Loading
Personal Weather Stations






























Interactive Weather Map New forecast layout! Learn more

10-Day Weather Forecast

Advertisements
Track Severe Weather on mobile